createdAt,value
2018-11-25T00:01:32.359Z,127.73
2018-11-25T00:04:03.219Z,131.10
2018-11-25T00:06:33.647Z,124.70
2018-11-25T00:09:04.310Z,123.70
2018-11-25T00:11:34.441Z,120.57
2018-11-25T00:16:42.016Z,124.63
2018-11-25T00:19:12.139Z,115.60
2018-11-25T00:21:42.918Z,106.60
2018-11-25T00:24:13.687Z,107.17
2018-11-25T00:26:43.797Z,107.37
2018-11-25T00:29:13.881Z,108.30
2018-11-25T00:31:44.690Z,107.53
2018-11-25T00:34:14.962Z,110.00
2018-11-25T00:36:45.321Z,105.00
2018-11-25T00:39:15.315Z,98.80
2018-11-25T00:41:46.342Z,102.93
2018-11-25T00:44:17.154Z,105.22
2018-11-25T00:46:47.190Z,103.63
2018-11-25T00:49:17.759Z,112.20
2018-11-25T00:51:47.859Z,109.03
2018-11-25T00:54:18.478Z,112.03
2018-11-25T00:56:48.963Z,107.07
2018-11-25T00:59:19.009Z,110.20
2018-11-25T01:01:49.547Z,105.90
2018-11-25T01:04:20.777Z,110.30
2018-11-25T01:06:51.140Z,110.30
2018-11-25T01:09:21.613Z,108.47
2018-11-25T01:11:51.640Z,107.43
2018-11-25T01:14:21.892Z,108.07
2018-11-25T01:16:52.353Z,106.03
2018-11-25T01:19:22.724Z,115.30
2018-11-25T01:21:53.023Z,109.53
2018-11-25T01:24:23.428Z,124.73
2018-11-25T01:27:00.021Z,130.37
2018-11-25T01:29:30.436Z,116.70
2018-11-25T01:32:00.661Z,118.67
2018-11-25T01:34:31.002Z,122.57
2018-11-25T01:37:01.386Z,109.43
2018-11-25T01:39:31.458Z,116.50
2018-11-25T01:42:01.571Z,107.00
2018-11-25T01:44:31.923Z,117.73
2018-11-25T01:47:02.246Z,115.30
2018-11-25T01:49:33.223Z,108.73
2018-11-25T01:52:03.991Z,124.02
2018-11-25T01:54:34.062Z,121.43
2018-11-25T01:57:04.366Z,117.97
2018-11-25T01:59:34.830Z,115.13
2018-11-25T02:02:06.114Z,93.17
2018-11-25T02:04:36.153Z,98.07
2018-11-25T02:07:06.690Z,103.03
2018-11-25T02:09:37.301Z,103.00
2018-11-25T02:12:07.568Z,111.60
2018-11-25T02:14:37.660Z,106.70
2018-11-25T02:17:08.072Z,108.13
2018-11-25T02:19:38.788Z,101.63
2018-11-25T02:22:09.036Z,90.23
2018-11-25T02:24:39.254Z,104.77
2018-11-25T02:27:10.095Z,108.63
2018-11-25T02:29:41.107Z,110.20
2018-11-25T02:32:11.585Z,112.60
2018-11-25T02:34:41.964Z,107.97
2018-11-25T02:37:12.848Z,103.07
2018-11-25T02:39:43.257Z,99.43
2018-11-25T02:44:49.263Z,100.80
2018-11-25T02:47:19.415Z,84.92
2018-11-25T02:49:50.036Z,97.37
2018-11-25T02:52:20.418Z,91.20
2018-11-25T02:54:50.942Z,82.90
2018-11-25T02:59:58.650Z,96.70
2018-11-25T03:02:30.183Z,99.50
2018-11-25T03:05:00.460Z,93.30
2018-11-25T03:07:30.802Z,90.63
2018-11-25T03:10:01.032Z,85.00
2018-11-25T03:12:31.356Z,100.37
2018-11-25T03:15:01.844Z,92.93
2018-11-25T03:17:32.678Z,107.43
2018-11-25T03:20:02.772Z,106.10
2018-11-25T03:22:33.266Z,127.33
2018-11-25T03:25:03.521Z,107.20
2018-11-25T03:27:34.211Z,135.87
2018-11-25T03:30:07.929Z,123.00
2018-11-25T03:32:38.118Z,122.80
2018-11-25T03:35:09.534Z,141.30
2018-11-25T03:37:39.899Z,158.47
2018-11-25T03:40:12.907Z,160.70
2018-11-25T03:42:44.177Z,157.03
2018-11-25T03:45:15.727Z,151.72
2018-11-25T03:47:45.939Z,150.70
2018-11-25T03:50:16.843Z,148.70
2018-11-25T03:52:46.878Z,149.13
2018-11-25T03:55:17.883Z,159.37
2018-11-25T03:57:48.062Z,147.07
2018-11-25T04:00:23.238Z,135.50
2018-11-25T04:02:54.552Z,150.83
2018-11-25T04:08:00.812Z,143.63
2018-11-25T04:10:31.965Z,145.03
2018-11-25T04:13:02.368Z,139.53
2018-11-25T04:15:32.418Z,143.33
2018-11-25T04:20:38.894Z,137.53
2018-11-25T04:23:09.413Z,137.72
2018-11-25T04:25:39.555Z,127.33
2018-11-25T04:28:09.661Z,128.50
2018-11-25T04:30:40.295Z,126.20
2018-11-25T04:33:10.478Z,116.20
2018-11-25T04:35:40.752Z,117.20
2018-11-25T04:38:10.784Z,106.30
2018-11-25T04:40:40.870Z,103.80
2018-11-25T04:43:11.166Z,100.17
2018-11-25T04:45:41.611Z,93.30
2018-11-25T04:48:12.305Z,97.40
2018-11-25T04:50:42.689Z,97.47
2018-11-25T04:53:13.311Z,99.83
2018-11-25T04:55:45.380Z,98.60
2018-11-25T04:58:15.584Z,96.03
2018-11-25T05:00:45.563Z,92.47
2018-11-25T05:03:16.745Z,90.22
2018-11-25T05:05:47.375Z,91.73
2018-11-25T05:08:17.624Z,91.53
2018-11-25T05:10:49.624Z,83.20
2018-11-25T05:13:20.519Z,84.28
2018-11-25T05:15:50.634Z,77.50
2018-11-25T05:18:20.696Z,82.57
2018-11-25T05:20:51.490Z,79.90
2018-11-25T05:23:21.607Z,76.63
2018-11-25T05:25:52.067Z,80.23
2018-11-25T05:28:22.675Z,78.90
2018-11-25T05:30:53.021Z,77.60
2018-11-25T05:35:59.729Z,73.93
2018-11-25T05:38:30.239Z,81.83
2018-11-25T05:41:00.700Z,82.40
2018-11-25T05:43:31.396Z,79.83
2018-11-25T05:46:01.410Z,80.27
2018-11-25T05:48:32.143Z,76.70
2018-11-25T05:51:03.467Z,79.77
2018-11-25T05:53:33.712Z,81.93
2018-11-25T05:56:04.312Z,78.90
2018-11-25T05:58:35.353Z,79.53
2018-11-25T06:01:05.858Z,73.63
2018-11-25T06:06:11.790Z,80.17
2018-11-25T06:08:42.011Z,77.30
2018-11-25T06:11:12.271Z,81.97
2018-11-25T06:13:42.862Z,81.20
2018-11-25T06:16:13.188Z,80.05
2018-11-25T06:18:43.304Z,79.97
2018-11-25T06:21:13.636Z,79.25
2018-11-25T06:23:47.459Z,77.60
2018-11-25T06:26:17.729Z,79.73
2018-11-25T06:28:48.043Z,77.83
2018-11-25T06:31:18.379Z,83.40
2018-11-25T06:33:49.704Z,78.77
2018-11-25T06:36:20.544Z,80.92
2018-11-25T06:38:50.760Z,76.47
2018-11-25T06:43:57.688Z,74.83
2018-11-25T06:46:27.763Z,75.70
2018-11-25T06:48:58.261Z,77.37
2018-11-25T06:51:28.632Z,72.70
2018-11-25T06:53:59.120Z,72.03
2018-11-25T06:56:29.783Z,74.53
2018-11-25T06:59:00.046Z,69.77
2018-11-25T07:01:30.272Z,70.07
2018-11-25T07:04:01.422Z,75.30
2018-11-25T07:06:31.502Z,74.17
2018-11-25T07:09:01.629Z,71.17
2018-11-25T07:11:32.041Z,70.97
2018-11-25T07:14:02.398Z,76.00
2018-11-25T07:16:33.078Z,71.07
2018-11-25T07:19:03.849Z,73.17
2018-11-25T07:21:33.935Z,71.90
2018-11-25T07:24:04.096Z,71.03
2018-11-25T07:26:34.267Z,73.70
2018-11-25T07:33:58.238Z,70.60
2018-11-25T07:36:28.492Z,66.13
2018-11-25T07:38:59.037Z,77.70
2018-11-25T07:41:29.380Z,74.80
2018-11-25T07:43:59.840Z,73.17
2018-11-25T07:46:30.523Z,70.30
2018-11-25T07:49:00.898Z,72.27
2018-11-25T07:51:31.402Z,67.40
2018-11-25T07:56:42.824Z,68.67
2018-11-25T07:59:13.190Z,69.53
2018-11-25T08:01:43.441Z,67.40
2018-11-25T08:04:13.585Z,65.83
2018-11-25T08:06:43.861Z,61.17
2018-11-25T08:09:14.088Z,66.62
2018-11-25T08:11:44.281Z,66.67
2018-11-25T08:14:14.873Z,67.73
2018-11-25T08:16:49.137Z,69.53
2018-11-25T08:19:19.290Z,65.07
2018-11-25T08:21:49.618Z,64.50
2018-11-25T08:24:20.471Z,63.13
2018-11-25T08:26:50.862Z,61.30
2018-11-25T08:29:21.284Z,61.37
2018-11-25T08:31:51.475Z,67.77
2018-11-25T08:34:21.466Z,63.50
2018-11-25T08:36:51.487Z,59.87
2018-11-25T08:39:21.867Z,64.13
2018-11-25T08:41:52.598Z,61.20
2018-11-25T08:44:24.731Z,63.40
2018-11-25T08:46:55.218Z,57.67
2018-11-25T08:49:25.355Z,59.13
2018-11-25T08:51:55.737Z,58.87
2018-11-25T08:54:26.344Z,58.50
2018-11-25T08:56:56.820Z,63.03
2018-11-25T08:59:27.227Z,56.13
2018-11-25T09:01:57.494Z,60.28
2018-11-25T09:04:27.694Z,53.87
2018-11-25T09:06:57.710Z,58.73
2018-11-25T09:09:27.960Z,57.47
2018-11-25T09:11:58.315Z,54.90
2018-11-25T09:14:28.751Z,57.40
2018-11-25T09:16:58.948Z,55.53
2018-11-25T09:19:29.526Z,57.70
2018-11-25T09:22:00.289Z,56.23
2018-11-25T09:27:06.819Z,57.10
2018-11-25T09:29:36.767Z,58.73
2018-11-25T09:32:08.272Z,56.13
2018-11-25T09:34:38.640Z,58.20
2018-11-25T09:37:15.151Z,59.83
2018-11-25T09:39:45.358Z,61.40
2018-11-25T09:42:17.769Z,59.73
2018-11-25T09:44:47.979Z,72.87
2018-11-25T09:47:18.787Z,73.47
2018-11-25T09:52:26.870Z,70.80
2018-11-25T09:54:57.140Z,68.87
2018-11-25T09:57:27.468Z,76.27
2018-11-25T09:59:57.403Z,72.17
2018-11-25T10:02:27.448Z,69.10
2018-11-25T10:04:57.547Z,63.20
2018-11-25T10:07:27.826Z,67.97
2018-11-25T10:09:57.977Z,73.10
2018-11-25T10:12:28.197Z,68.63
2018-11-25T10:14:58.314Z,65.93
2018-11-25T10:20:10.566Z,60.50
2018-11-25T10:22:40.939Z,59.57
2018-11-25T10:25:13.006Z,64.22
2018-11-25T10:27:43.266Z,62.33
2018-11-25T10:30:16.199Z,62.90
2018-11-25T10:35:23.038Z,57.40
2018-11-25T10:37:53.269Z,57.37
2018-11-25T10:40:24.316Z,60.50
2018-11-25T10:42:54.425Z,62.00
2018-11-25T10:45:26.285Z,55.90
2018-11-25T10:50:34.474Z,67.97
2018-11-25T10:53:06.320Z,67.20
2018-11-25T10:55:37.358Z,58.07
2018-11-25T10:58:08.061Z,63.33
2018-11-25T11:00:44.293Z,68.30
2018-11-25T11:03:19.600Z,59.23
2018-11-25T11:05:58.999Z,59.77
2018-11-25T11:08:36.037Z,58.20
2018-11-25T11:13:48.823Z,58.83
2018-11-25T11:16:20.021Z,61.47
2018-11-25T11:18:49.973Z,61.07
2018-11-25T11:21:21.234Z,64.43
2018-11-25T11:23:52.495Z,62.47
2018-11-25T11:29:01.002Z,64.33
2018-11-25T11:31:31.219Z,65.40
2018-11-25T11:34:01.662Z,68.23
2018-11-25T11:36:31.906Z,70.70
2018-11-25T11:39:02.920Z,63.97
2018-11-25T11:41:33.438Z,77.17
2018-11-25T11:44:03.416Z,72.23
2018-11-25T11:46:34.765Z,71.93
2018-11-25T11:49:06.777Z,71.60
2018-11-25T11:51:37.007Z,72.23
2018-11-25T11:54:07.892Z,71.23
2018-11-25T11:56:40.394Z,68.80
2018-11-25T11:59:10.105Z,65.23
2018-11-25T12:01:40.704Z,63.97
2018-11-25T12:04:11.223Z,65.77
2018-11-25T12:06:41.403Z,63.27
2018-11-25T12:09:13.895Z,62.24
2018-11-25T12:11:44.227Z,53.70
2018-11-25T12:14:15.057Z,61.40
2018-11-25T12:16:46.620Z,59.97
2018-11-25T12:21:58.060Z,58.40
2018-11-25T12:24:23.235Z,55.28
2018-11-25T12:26:54.750Z,62.20
2018-11-25T12:29:26.040Z,59.83
2018-11-25T12:31:57.601Z,63.90
2018-11-25T12:34:27.946Z,66.23
2018-11-25T12:36:58.633Z,60.67
2018-11-25T12:39:29.848Z,55.50
2018-11-25T12:44:42.180Z,49.73
2018-11-25T12:47:13.379Z,45.03
2018-11-25T12:49:44.349Z,48.00
2018-11-25T12:52:15.612Z,51.80
2018-11-25T12:54:46.556Z,50.87
2018-11-25T12:57:18.790Z,57.53
2018-11-25T12:59:49.613Z,57.73
2018-11-25T13:02:19.825Z,61.70
2018-11-25T13:04:50.737Z,59.50
2018-11-25T13:07:20.839Z,58.90
2018-11-25T13:09:51.324Z,62.03
2018-11-25T13:12:22.167Z,61.10
2018-11-25T13:14:52.138Z,60.20
2018-11-25T13:17:25.748Z,61.83
2018-11-25T13:19:55.866Z,61.17
2018-11-25T13:22:27.048Z,76.10
2018-11-25T13:24:57.865Z,67.23
2018-11-25T13:27:28.306Z,66.20
2018-11-25T13:29:58.680Z,65.27
2018-11-25T13:32:32.126Z,63.67
2018-11-25T13:37:40.448Z,62.80
2018-11-25T13:40:14.618Z,67.20
2018-11-25T13:42:44.792Z,69.70
2018-11-25T13:45:15.046Z,65.75
2018-11-25T13:47:45.131Z,66.80
2018-11-25T13:50:15.893Z,69.43
2018-11-25T13:52:46.528Z,65.10
2018-11-25T13:55:19.134Z,72.17
2018-11-25T13:57:49.727Z,67.32
2018-11-25T14:00:22.867Z,69.95
2018-11-25T14:02:53.238Z,73.93
2018-11-25T14:08:01.592Z,74.33
2018-11-25T14:10:33.514Z,69.40
2018-11-25T14:13:03.861Z,77.37
2018-11-25T14:15:33.861Z,74.53
2018-11-25T14:18:03.898Z,75.33
2018-11-25T14:20:34.358Z,77.27
2018-11-25T14:23:05.340Z,82.17
2018-11-25T14:25:36.062Z,76.70
2018-11-25T14:28:09.308Z,79.70
2018-11-25T14:30:39.749Z,75.13
2018-11-25T14:33:09.983Z,79.03
2018-11-25T14:35:40.089Z,70.87
2018-11-25T14:38:10.344Z,73.53
2018-11-25T14:40:41.300Z,79.17
2018-11-25T14:43:11.519Z,75.83
2018-11-25T14:45:41.887Z,76.63
2018-11-25T14:48:12.479Z,77.45
2018-11-25T14:50:42.700Z,76.57
2018-11-25T14:53:13.004Z,76.73
2018-11-25T14:55:43.401Z,79.97
2018-11-25T14:58:19.972Z,73.52
2018-11-25T15:00:50.393Z,73.80
2018-11-25T15:03:20.951Z,75.72
2018-11-25T15:05:51.549Z,84.07
2018-11-25T15:08:25.131Z,80.90
2018-11-25T15:10:55.800Z,83.30
2018-11-25T15:13:26.192Z,86.97
2018-11-25T15:15:57.402Z,86.10
2018-11-25T15:18:27.711Z,89.70
2018-11-25T15:20:58.099Z,96.43
2018-11-25T15:23:29.081Z,95.37
2018-11-25T15:25:59.143Z,89.93
2018-11-25T15:28:29.717Z,88.75
2018-11-25T15:31:00.197Z,88.33
2018-11-25T15:33:30.702Z,85.70
2018-11-25T15:36:04.937Z,81.10
2018-11-25T15:38:35.671Z,90.57
2018-11-25T15:41:06.084Z,93.43
2018-11-25T15:43:37.277Z,81.17
2018-11-25T15:46:07.679Z,86.80
2018-11-25T15:48:38.213Z,86.83
2018-11-25T15:51:08.432Z,89.33
2018-11-25T15:53:38.850Z,92.27
2018-11-25T15:56:10.307Z,83.83
2018-11-25T15:58:40.973Z,93.00
2018-11-25T16:01:11.717Z,90.77
2018-11-25T16:03:42.355Z,93.97
2018-11-25T16:06:16.864Z,87.80
2018-11-25T16:08:47.434Z,95.63
2018-11-25T16:11:18.135Z,90.27
2018-11-25T16:13:48.760Z,94.33
2018-11-25T16:16:19.431Z,95.70
2018-11-25T16:18:50.818Z,99.83
2018-11-25T16:23:59.021Z,101.87
2018-11-25T16:26:31.694Z,100.03
2018-11-25T16:29:05.315Z,95.93
2018-11-25T16:31:36.965Z,94.70
2018-11-25T16:34:08.763Z,94.80
2018-11-25T16:39:16.742Z,93.10
2018-11-25T16:41:46.983Z,93.58
2018-11-25T16:46:55.315Z,92.37
2018-11-25T16:49:25.574Z,91.73
2018-11-25T16:51:56.012Z,96.23
2018-11-25T16:54:26.618Z,94.93
2018-11-25T16:56:57.020Z,88.23
2018-11-25T16:59:27.438Z,86.73
2018-11-25T17:01:57.994Z,77.53
2018-11-25T17:04:28.489Z,75.87
2018-11-25T17:06:59.015Z,76.20
2018-11-25T17:09:29.682Z,74.97
2018-11-25T17:14:36.398Z,74.80
2018-11-25T17:17:06.726Z,70.50
2018-11-25T17:19:37.241Z,68.47
2018-11-25T17:22:08.875Z,73.70
2018-11-25T17:24:39.666Z,68.00
2018-11-25T17:27:10.299Z,68.50
2018-11-25T17:29:40.831Z,69.13
2018-11-25T17:32:11.290Z,73.13
2018-11-25T17:34:42.084Z,73.17
2018-11-25T17:37:12.737Z,72.80
2018-11-25T17:39:42.836Z,80.73
2018-11-25T17:42:13.441Z,81.90
2018-11-25T17:44:44.226Z,81.27
2018-11-25T17:47:15.155Z,84.97
2018-11-25T17:49:46.460Z,83.83
2018-11-25T17:54:53.927Z,83.87
2018-11-25T17:57:28.201Z,82.47
2018-11-25T17:59:58.589Z,82.27
2018-11-25T18:02:29.372Z,87.47
2018-11-25T18:05:01.227Z,84.13
2018-11-25T18:07:31.791Z,93.87
2018-11-25T18:10:02.632Z,84.13
2018-11-25T18:12:33.165Z,87.63
2018-11-25T18:15:03.890Z,85.40
2018-11-25T18:17:34.376Z,92.40
2018-11-25T18:20:06.308Z,91.42
2018-11-25T18:22:37.374Z,91.27
2018-11-25T18:25:08.046Z,89.97
2018-11-25T18:27:38.945Z,82.87
2018-11-25T18:30:13.031Z,89.17
2018-11-25T18:32:44.157Z,93.10
2018-11-25T18:35:15.616Z,93.80
2018-11-25T18:37:46.315Z,84.03
2018-11-25T18:40:18.831Z,87.20
2018-11-25T18:42:50.027Z,87.13
2018-11-25T18:45:21.031Z,94.50
2018-11-25T18:47:51.680Z,91.40
2018-11-25T18:50:22.161Z,85.50
2018-11-25T18:52:53.666Z,90.13
2018-11-25T18:55:22.482Z,89.13
2018-11-25T18:57:53.072Z,96.30
2018-11-25T19:00:33.322Z,94.42
2018-11-25T19:03:03.881Z,100.53
2018-11-25T19:05:34.410Z,102.27
2018-11-25T19:08:06.698Z,103.00
2018-11-25T19:10:37.922Z,96.70
2018-11-25T19:13:08.250Z,103.77
2018-11-25T19:15:39.334Z,95.77
2018-11-25T19:18:10.741Z,105.27
2018-11-25T19:20:41.163Z,100.33
2018-11-25T19:23:11.454Z,105.58
2018-11-25T19:25:42.088Z,100.57
2018-11-25T19:28:12.365Z,103.90
2018-11-25T19:33:19.200Z,114.17
2018-11-25T19:35:49.533Z,101.87
2018-11-25T19:38:20.261Z,111.77
2018-11-25T19:40:51.442Z,107.93
2018-11-25T19:43:22.522Z,106.80
2018-11-25T19:45:53.161Z,109.47
2018-11-25T19:48:24.037Z,103.30
2018-11-25T19:50:54.355Z,105.60
2018-11-25T19:53:24.938Z,96.40
2018-11-25T19:55:55.520Z,102.50
2018-11-25T19:58:26.136Z,98.13
2018-11-25T20:00:57.151Z,94.63
2018-11-25T20:03:28.675Z,103.47
2018-11-25T20:05:59.401Z,99.77
2018-11-25T20:08:30.200Z,106.60
2018-11-25T20:11:00.635Z,102.53
2018-11-25T20:13:32.120Z,105.43
2018-11-25T20:17:11.362Z,103.27
2018-11-25T20:19:42.724Z,103.50
2018-11-25T20:22:18.283Z,98.67
2018-11-25T20:24:48.465Z,104.57
2018-11-25T20:27:24.025Z,104.17
2018-11-25T20:29:54.356Z,100.55
2018-11-25T20:32:30.276Z,96.60
2018-11-25T20:35:00.676Z,101.40
2018-11-25T20:37:31.784Z,99.13
2018-11-25T20:40:02.491Z,98.63
2018-11-25T20:42:38.603Z,98.42
2018-11-25T20:45:15.224Z,103.53
2018-11-25T20:47:46.019Z,107.27
2018-11-25T20:50:16.517Z,108.27
2018-11-25T20:52:51.825Z,106.07
2018-11-25T20:55:22.630Z,111.27
2018-11-25T20:57:53.896Z,104.43
2018-11-25T21:00:29.469Z,106.63
2018-11-25T21:02:59.964Z,107.63
2018-11-25T21:05:30.894Z,108.90
2018-11-25T21:08:01.565Z,108.37
2018-11-25T21:10:32.173Z,108.93
2018-11-25T21:13:02.458Z,107.53
2018-11-25T21:15:33.058Z,107.00
2018-11-25T21:18:03.694Z,107.13
2018-11-25T21:20:34.186Z,113.87
2018-11-25T21:27:58.335Z,91.43
2018-11-25T21:30:28.543Z,99.65
2018-11-25T21:32:59.260Z,101.70
2018-11-25T21:35:29.531Z,105.40
2018-11-25T21:38:00.792Z,106.58
2018-11-25T21:40:31.302Z,99.63
2018-11-25T21:43:01.620Z,98.90
2018-11-25T21:45:31.874Z,98.30
2018-11-25T21:48:02.077Z,99.33
2018-11-25T21:50:32.653Z,91.80
2018-11-25T21:53:02.952Z,89.83
2018-11-25T21:55:34.471Z,87.53
2018-11-25T21:58:05.815Z,86.78
2018-11-25T22:00:36.101Z,83.93
2018-11-25T22:03:06.363Z,81.13
2018-11-25T22:05:36.919Z,84.27
2018-11-25T22:08:07.591Z,78.40
2018-11-25T22:10:38.993Z,85.07
2018-11-25T22:13:09.450Z,79.37
2018-11-25T22:15:40.000Z,79.90
2018-11-25T22:18:11.227Z,79.80
2018-11-25T22:20:41.862Z,76.83
2018-11-25T22:23:16.205Z,77.35
2018-11-25T22:25:46.401Z,76.13
2018-11-25T22:28:17.789Z,83.80
2018-11-25T22:30:48.318Z,86.10
2018-11-25T22:33:18.754Z,77.42
2018-11-25T22:35:49.474Z,80.90
2018-11-25T22:38:20.280Z,79.87
2018-11-25T22:40:50.660Z,87.17
2018-11-25T22:43:24.505Z,78.90
2018-11-25T22:45:54.753Z,81.60
2018-11-25T22:48:25.590Z,84.53
2018-11-25T22:50:56.374Z,82.87
2018-11-25T22:53:26.441Z,82.03
2018-11-25T22:55:56.750Z,88.70
2018-11-25T22:58:27.524Z,87.80
2018-11-25T23:03:35.577Z,86.60
2018-11-25T23:06:16.447Z,88.43
2018-11-25T23:08:47.433Z,86.27
2018-11-25T23:11:17.825Z,86.33
2018-11-25T23:13:48.342Z,89.43
2018-11-25T23:16:22.927Z,91.35
2018-11-25T23:18:53.666Z,87.87
2018-11-25T23:21:23.984Z,89.77
2018-11-25T23:23:54.277Z,92.43
2018-11-25T23:26:24.581Z,96.77
2018-11-25T23:28:55.291Z,91.27
2018-11-25T23:31:25.922Z,87.03
2018-11-25T23:33:56.858Z,91.17
2018-11-25T23:36:27.402Z,88.47
2018-11-25T23:38:58.501Z,96.23
2018-11-25T23:41:28.972Z,99.27
2018-11-25T23:43:59.477Z,92.03
2018-11-25T23:46:29.744Z,95.40
2018-11-25T23:49:01.058Z,89.57
2018-11-25T23:51:31.419Z,95.30
2018-11-25T23:54:02.264Z,95.90
2018-11-25T23:56:32.635Z,93.10
2018-11-25T23:59:03.265Z,95.27
